createdAt,value
2019-06-10T00:05:11.121Z,17.57
2019-06-10T00:16:11.911Z,17.39
2019-06-10T00:27:14.935Z,17.20
2019-06-10T00:38:17.529Z,17.07
2019-06-10T00:49:21.331Z,17.10
2019-06-10T01:00:25.822Z,17.07
2019-06-10T01:11:30.843Z,16.96
2019-06-10T01:22:31.704Z,16.99
2019-06-10T01:33:33.795Z,16.92
2019-06-10T01:44:36.013Z,16.71
2019-06-10T01:55:34.925Z,16.60
2019-06-10T02:06:35.776Z,16.65
2019-06-10T02:17:36.662Z,16.59
2019-06-10T02:28:40.761Z,16.56
2019-06-10T02:39:43.975Z,16.41
2019-06-10T02:50:44.325Z,16.40
2019-06-10T03:01:47.318Z,16.48
2019-06-10T03:12:49.340Z,16.52
2019-06-10T03:23:49.616Z,16.40
2019-06-10T03:34:49.118Z,16.47
2019-06-10T03:45:49.856Z,16.40
2019-06-10T03:56:52.108Z,16.50
2019-06-10T04:07:53.111Z,16.73
2019-06-10T04:18:48.709Z,16.95
2019-06-10T04:29:52.814Z,17.18
2019-06-10T04:40:55.403Z,17.47
2019-06-10T04:51:52.964Z,17.95
2019-06-10T05:02:56.131Z,18.29
2019-06-10T05:13:57.080Z,18.50
2019-06-10T05:24:55.875Z,18.89
2019-06-10T05:35:54.893Z,19.18
2019-06-10T05:46:55.029Z,19.57
2019-06-10T05:57:56.875Z,20.27
2019-06-10T06:08:58.911Z,20.64
2019-06-10T06:19:55.555Z,21.04
2019-06-10T06:30:52.799Z,21.35
2019-06-10T06:41:50.064Z,21.72
2019-06-10T06:53:18.961Z,22.08
2019-06-10T07:03:49.221Z,22.83
2019-06-10T07:14:52.482Z,23.02
2019-06-10T07:25:53.839Z,23.31
2019-06-10T07:36:55.923Z,23.72
2019-06-10T07:47:54.114Z,24.07
2019-06-10T07:58:57.040Z,24.23
2019-06-10T08:10:02.879Z,24.64
2019-06-10T08:20:57.024Z,24.76
2019-06-10T08:31:57.077Z,25.32
2019-06-10T08:42:58.157Z,25.47
2019-06-10T08:53:55.144Z,25.82
2019-06-10T09:04:58.032Z,25.84
2019-06-10T09:16:10.969Z,26.32
2019-06-10T09:27:05.144Z,26.60
2019-06-10T09:38:05.777Z,27.21
2019-06-10T09:49:08.097Z,27.38
2019-06-10T10:00:12.468Z,27.54
2019-06-10T10:11:08.572Z,27.89
2019-06-10T10:22:04.622Z,27.97
2019-06-10T10:33:03.609Z,28.53
2019-06-10T10:44:04.952Z,28.59
2019-06-10T10:55:12.969Z,29.13
2019-06-10T11:06:15.361Z,29.32
2019-06-10T11:17:13.577Z,30.11
2019-06-10T11:28:18.455Z,30.53
2019-06-10T11:39:13.385Z,31.98
2019-06-10T11:50:06.891Z,32.91
2019-06-10T12:01:03.868Z,33.93
2019-06-10T12:12:02.394Z,32.43
2019-06-10T12:22:59.613Z,32.70
2019-06-10T12:34:01.271Z,34.27
2019-06-10T12:44:58.913Z,34.14
2019-06-10T12:55:59.247Z,35.09
2019-06-10T13:07:00.506Z,34.48
2019-06-10T13:17:58.126Z,35.43
2019-06-10T13:28:59.044Z,34.22
2019-06-10T13:40:01.371Z,32.13
2019-06-10T13:50:58.956Z,33.91
2019-06-10T14:02:04.979Z,34.48
2019-06-10T14:12:58.676Z,34.19
2019-06-10T14:24:04.110Z,33.44
2019-06-10T14:35:03.521Z,33.09
2019-06-10T14:46:09.005Z,32.25
2019-06-10T14:57:07.044Z,33.92
2019-06-10T15:08:03.962Z,32.80
2019-06-10T15:19:11.841Z,31.71
2019-06-10T15:30:14.549Z,31.27
2019-06-10T15:41:18.088Z,30.59
2019-06-10T15:52:20.660Z,29.92
2019-06-10T16:03:25.625Z,29.50
2019-06-10T16:14:26.071Z,29.47
2019-06-10T16:25:26.652Z,28.86
2019-06-10T16:36:28.273Z,28.94
2019-06-10T16:47:25.065Z,28.56
2019-06-10T16:58:28.509Z,28.61
2019-06-10T17:09:29.944Z,28.20
2019-06-10T17:20:26.316Z,28.35
2019-06-10T17:31:31.893Z,28.10
2019-06-10T17:42:34.538Z,27.62
2019-06-10T17:53:35.143Z,26.90
2019-06-10T18:04:31.430Z,26.50
2019-06-10T18:15:34.290Z,26.18
2019-06-10T18:26:37.814Z,25.82
2019-06-10T18:37:42.150Z,25.52
2019-06-10T18:48:38.541Z,25.25
2019-06-10T18:59:39.544Z,25.01
2019-06-10T19:10:42.529Z,24.75
2019-06-10T19:21:40.565Z,24.29
2019-06-10T19:32:44.173Z,24.67
2019-06-10T19:43:41.510Z,24.85
2019-06-10T19:54:43.496Z,24.66
2019-06-10T20:05:45.255Z,23.98
2019-06-10T20:16:45.937Z,24.20
2019-06-10T20:27:46.084Z,24.25
2019-06-10T20:38:47.255Z,24.02
2019-06-10T20:49:45.995Z,23.82
2019-06-10T21:00:52.299Z,23.60
2019-06-10T21:11:50.133Z,23.70
2019-06-10T21:22:53.489Z,23.23
2019-06-10T21:33:55.770Z,23.04
2019-06-10T21:44:57.190Z,22.86
2019-06-10T21:55:55.308Z,22.46
2019-06-10T22:06:57.180Z,22.04
2019-06-10T22:17:56.574Z,21.95
2019-06-10T22:28:57.484Z,21.59
2019-06-10T22:39:59.603Z,21.39
2019-06-10T22:51:01.531Z,21.04
2019-06-10T23:02:04.980Z,20.86
2019-06-10T23:13:03.057Z,20.71
2019-06-10T23:24:03.449Z,20.57
2019-06-10T23:35:07.897Z,20.42
2019-06-10T23:46:04.659Z,20.38
2019-06-10T23:57:06.163Z,20.16
